sensor_id;sensor_type;location;lat;lon;timestamp;pressure;altitude;pressure_sealevel;temperature;humidity
10476;BME280;26166;48.264;11.436;2023-07-20T00:01:22;95986.78;;;21.97;51.59
10476;BME280;26166;48.264;11.436;2023-07-20T00:04:22;95985.41;;;21.95;52.22
10476;BME280;26166;48.264;11.436;2023-07-20T00:07:22;95996.09;;;21.95;51.97
10476;BME280;26166;48.264;11.436;2023-07-20T00:10:24;96003.31;;;21.94;51.98
10476;BME280;26166;48.264;11.436;2023-07-20T00:13:25;95996.34;;;21.93;51.94
10476;BME280;26166;48.264;11.436;2023-07-20T00:16:25;95995.53;;;21.92;52.14
10476;BME280;26166;48.264;11.436;2023-07-20T00:19:26;96000.09;;;21.92;52.19
10476;BME280;26166;48.264;11.436;2023-07-20T00:22:27;96000.31;;;21.90;51.95
10476;BME280;26166;48.264;11.436;2023-07-20T00:25:27;95994.41;;;21.88;52.06
10476;BME280;26166;48.264;11.436;2023-07-20T00:28:27;95998.16;;;21.87;51.51
10476;BME280;26166;48.264;11.436;2023-07-20T00:31:27;95998.38;;;21.86;51.83
10476;BME280;26166;48.264;11.436;2023-07-20T00:34:29;95994.88;;;21.85;51.77
10476;BME280;26166;48.264;11.436;2023-07-20T00:37:29;95998.63;;;21.84;51.58
10476;BME280;26166;48.264;11.436;2023-07-20T00:40:39;96001.31;;;21.84;52.07
10476;BME280;26166;48.264;11.436;2023-07-20T00:43:39;95998.03;;;21.82;51.93
10476;BME280;26166;48.264;11.436;2023-07-20T00:46:39;96005.03;;;21.83;51.97
10476;BME280;26166;48.264;11.436;2023-07-20T00:49:41;96005.25;;;21.82;52.35
10476;BME280;26166;48.264;11.436;2023-07-20T00:52:41;96004.22;;;21.83;52.28
10476;BME280;26166;48.264;11.436;2023-07-20T00:55:42;96007.13;;;21.81;52.17
10476;BME280;26166;48.264;11.436;2023-07-20T00:58:42;96010.06;;;21.80;52.03
10476;BME280;26166;48.264;11.436;2023-07-20T01:01:42;96011.09;;;21.79;52.48
10476;BME280;26166;48.264;11.436;2023-07-20T01:04:42;96004.97;;;21.78;52.39
10476;BME280;26166;48.264;11.436;2023-07-20T01:07:53;96002.28;;;21.78;52.58
10476;BME280;26166;48.264;11.436;2023-07-20T01:10:59;95996.94;;;21.78;52.57
10476;BME280;26166;48.264;11.436;2023-07-20T01:14:03;96001.69;;;21.76;52.54
10476;BME280;26166;48.264;11.436;2023-07-20T01:17:03;95995.28;;;21.77;52.64
10476;BME280;26166;48.264;11.436;2023-07-20T01:20:03;95989.94;;;21.77;52.67
10476;BME280;26166;48.264;11.436;2023-07-20T01:32:14;96005.91;;;21.72;52.41
10476;BME280;26166;48.264;11.436;2023-07-20T01:35:16;95998.16;;;21.71;52.00
10476;BME280;26166;48.264;11.436;2023-07-20T01:38:17;95990.34;;;21.69;51.95
10476;BME280;26166;48.264;11.436;2023-07-20T01:41:18;95991.41;;;21.68;51.47
10476;BME280;26166;48.264;11.436;2023-07-20T01:44:18;95997.81;;;21.67;51.59
10476;BME280;26166;48.264;11.436;2023-07-20T01:47:19;95999.44;;;21.68;51.77
10476;BME280;26166;48.264;11.436;2023-07-20T01:50:19;96002.34;;;21.66;51.83
10476;BME280;26166;48.264;11.436;2023-07-20T01:53:20;95997.81;;;21.67;51.31
10476;BME280;26166;48.264;11.436;2023-07-20T01:56:20;96005.28;;;21.65;51.52
10476;BME280;26166;48.264;11.436;2023-07-20T01:59:20;96007.94;;;21.65;51.41
10476;BME280;26166;48.264;11.436;2023-07-20T02:02:20;96008.50;;;21.67;51.52
10476;BME280;26166;48.264;11.436;2023-07-20T02:05:21;96002.59;;;21.65;51.25
10476;BME280;26166;48.264;11.436;2023-07-20T02:08:21;96007.94;;;21.65;51.29
10476;BME280;26166;48.264;11.436;2023-07-20T02:11:21;96006.31;;;21.64;51.54
10476;BME280;26166;48.264;11.436;2023-07-20T02:14:21;96012.47;;;21.64;51.98
10476;BME280;26166;48.264;11.436;2023-07-20T02:17:22;96008.97;;;21.64;51.62
10476;BME280;26166;48.264;11.436;2023-07-20T02:20:22;96011.44;;;21.65;51.90
10476;BME280;26166;48.264;11.436;2023-07-20T02:23:23;96018.06;;;21.63;51.51
10476;BME280;26166;48.264;11.436;2023-07-20T02:26:23;96027.13;;;21.62;51.36
10476;BME280;26166;48.264;11.436;2023-07-20T02:29:23;96027.38;;;21.60;51.33
10476;BME280;26166;48.264;11.436;2023-07-20T02:32:23;96012.63;;;21.58;51.49
10476;BME280;26166;48.264;11.436;2023-07-20T02:35:23;96017.97;;;21.58;51.52
10476;BME280;26166;48.264;11.436;2023-07-20T02:38:24;96013.69;;;21.57;51.81
10476;BME280;26166;48.264;11.436;2023-07-20T02:41:24;96024.38;;;21.57;52.26
10476;BME280;26166;48.264;11.436;2023-07-20T02:44:24;96035.06;;;21.57;51.74
10476;BME280;26166;48.264;11.436;2023-07-20T02:47:25;96033.44;;;21.56;51.73
10476;BME280;26166;48.264;11.436;2023-07-20T02:50:25;96031.81;;;21.55;51.73
10476;BME280;26166;48.264;11.436;2023-07-20T02:53:25;96026.47;;;21.55;51.78
10476;BME280;26166;48.264;11.436;2023-07-20T02:56:26;96035.53;;;21.54;51.35
10476;BME280;26166;48.264;11.436;2023-07-20T02:59:26;96039.28;;;21.53;51.71
10476;BME280;26166;48.264;11.436;2023-07-20T03:02:29;96035.00;;;21.52;51.75
10476;BME280;26166;48.264;11.436;2023-07-20T03:05:29;96036.00;;;21.51;50.89
10476;BME280;26166;48.264;11.436;2023-07-20T03:08:30;96043.47;;;21.49;51.48
10476;BME280;26166;48.264;11.436;2023-07-20T03:11:31;96038.13;;;21.49;51.44
10476;BME280;26166;48.264;11.436;2023-07-20T03:14:32;96038.13;;;21.49;50.78
10476;BME280;26166;48.264;11.436;2023-07-20T03:17:32;96043.72;;;21.47;50.72
10476;BME280;26166;48.264;11.436;2023-07-20T03:20:32;96046.63;;;21.46;50.86
10476;BME280;26166;48.264;11.436;2023-07-20T03:23:32;96049.28;;;21.46;50.81
10476;BME280;26166;48.264;11.436;2023-07-20T03:26:33;96056.25;;;21.47;50.54
10476;BME280;26166;48.264;11.436;2023-07-20T03:29:33;96057.31;;;21.46;50.34
10476;BME280;26166;48.264;11.436;2023-07-20T03:32:33;96065.31;;;21.46;50.31
10476;BME280;26166;48.264;11.436;2023-07-20T03:35:33;96063.72;;;21.45;50.16
10476;BME280;26166;48.264;11.436;2023-07-20T03:38:33;96067.44;;;21.44;49.65
10476;BME280;26166;48.264;11.436;2023-07-20T03:41:34;96067.44;;;21.44;50.43
10476;BME280;26166;48.264;11.436;2023-07-20T03:44:34;96066.84;;;21.41;50.10
10476;BME280;26166;48.264;11.436;2023-07-20T03:47:34;96067.91;;;21.40;50.08
10476;BME280;26166;48.264;11.436;2023-07-20T03:50:34;96069.53;;;21.41;50.28
10476;BME280;26166;48.264;11.436;2023-07-20T03:53:35;96061.50;;;21.41;50.39
10476;BME280;26166;48.264;11.436;2023-07-20T03:56:35;96067.91;;;21.40;49.61
10476;BME280;26166;48.264;11.436;2023-07-20T03:59:36;96064.44;;;21.40;50.11
10476;BME280;26166;48.264;11.436;2023-07-20T04:02:36;96071.63;;;21.39;49.96
10476;BME280;26166;48.264;11.436;2023-07-20T04:05:37;96073.72;;;21.37;49.79
10476;BME280;26166;48.264;11.436;2023-07-20T04:08:37;96069.19;;;21.38;49.77
10476;BME280;26166;48.264;11.436;2023-07-20T04:11:37;96064.09;;;21.36;49.78
10476;BME280;26166;48.264;11.436;2023-07-20T04:14:38;96070.25;;;21.37;50.31
10476;BME280;26166;48.264;11.436;2023-07-20T04:17:38;96074.78;;;21.36;49.87
10476;BME280;26166;48.264;11.436;2023-07-20T04:20:40;96072.91;;;21.37;50.33
10476;BME280;26166;48.264;11.436;2023-07-20T04:23:41;96075.84;;;21.35;50.06
10476;BME280;26166;48.264;11.436;2023-07-20T04:26:41;96080.38;;;21.35;50.13
10476;BME280;26166;48.264;11.436;2023-07-20T04:29:42;96087.00;;;21.32;50.00
10476;BME280;26166;48.264;11.436;2023-07-20T04:32:42;96092.34;;;21.32;49.96
10476;BME280;26166;48.264;11.436;2023-07-20T04:38:45;96090.94;;;21.30;50.19
10476;BME280;26166;48.264;11.436;2023-07-20T04:41:47;96096.06;;;21.31;50.17
10476;BME280;26166;48.264;11.436;2023-07-20T04:44:47;96095.22;;;21.31;50.01
10476;BME280;26166;48.264;11.436;2023-07-20T04:47:48;96099.75;;;21.30;50.13
10476;BME280;26166;48.264;11.436;2023-07-20T04:50:48;96091.97;;;21.29;50.02
10476;BME280;26166;48.264;11.436;2023-07-20T04:53:48;96094.41;;;21.30;50.07
10476;BME280;26166;48.264;11.436;2023-07-20T04:56:48;96107.19;;;21.28;49.96
10476;BME280;26166;48.264;11.436;2023-07-20T04:59:48;96106.38;;;21.28;50.03
10476;BME280;26166;48.264;11.436;2023-07-20T05:02:48;96109.03;;;21.28;49.72
10476;BME280;26166;48.264;11.436;2023-07-20T05:05:50;96103.94;;;21.26;49.85
10476;BME280;26166;48.264;11.436;2023-07-20T05:08:50;96103.94;;;21.26;49.48
10476;BME280;26166;48.264;11.436;2023-07-20T05:11:50;96103.13;;;21.26;49.46
10476;BME280;26166;48.264;11.436;2023-07-20T05:14:51;96108.69;;;21.24;49.90
10476;BME280;26166;48.264;11.436;2023-07-20T05:17:51;96109.28;;;21.26;50.12
10476;BME280;26166;48.264;11.436;2023-07-20T05:20:51;96107.69;;;21.25;50.28
10476;BME280;26166;48.264;11.436;2023-07-20T05:23:51;96113.03;;;21.25;49.87
10476;BME280;26166;48.264;11.436;2023-07-20T05:26:52;96106.84;;;21.25;50.07
10476;BME280;26166;48.264;11.436;2023-07-20T05:29:52;96107.69;;;21.25;49.89
10476;BME280;26166;48.264;11.436;2023-07-20T05:32:52;96110.09;;;21.27;50.42
10476;BME280;26166;48.264;11.436;2023-07-20T05:35:54;96109.28;;;21.26;50.04
10476;BME280;26166;48.264;11.436;2023-07-20T05:38:54;96115.44;;;21.27;50.07
10476;BME280;26166;48.264;11.436;2023-07-20T05:41:54;96110.34;;;21.25;50.28
10476;BME280;26166;48.264;11.436;2023-07-20T05:44:55;96116.72;;;21.24;49.58
10476;BME280;26166;48.264;11.436;2023-07-20T05:47:55;96116.63;;;21.19;50.15
10476;BME280;26166;48.264;11.436;2023-07-20T05:50:55;96121.41;;;21.17;49.92
10476;BME280;26166;48.264;11.436;2023-07-20T05:53:56;96125.09;;;21.16;49.34
10476;BME280;26166;48.264;11.436;2023-07-20T05:56:56;96124.53;;;21.14;49.30
10476;BME280;26166;48.264;11.436;2023-07-20T05:59:56;96129.88;;;21.14;49.04
10476;BME280;26166;48.264;11.436;2023-07-20T06:02:56;96124.78;;;21.12;48.45
10476;BME280;26166;48.264;11.436;2023-07-20T06:06:00;96125.59;;;21.13;48.94
10476;BME280;26166;48.264;11.436;2023-07-20T06:09:01;96120.25;;;21.13;49.38
10476;BME280;26166;48.264;11.436;2023-07-20T06:12:05;96128.47;;;21.11;49.29
10476;BME280;26166;48.264;11.436;2023-07-20T06:15:06;96126.84;;;21.10;49.12
10476;BME280;26166;48.264;11.436;2023-07-20T06:18:06;96133.00;;;21.11;49.19
10476;BME280;26166;48.264;11.436;2023-07-20T06:21:07;96127.66;;;21.11;49.19
10476;BME280;26166;48.264;11.436;2023-07-20T06:24:07;96126.06;;;21.10;48.87
10476;BME280;26166;48.264;11.436;2023-07-20T06:27:07;96129.78;;;21.09;48.98
10476;BME280;26166;48.264;11.436;2023-07-20T06:30:08;96124.44;;;21.09;48.82
10476;BME280;26166;48.264;11.436;2023-07-20T06:33:08;96120.16;;;21.08;48.86
10476;BME280;26166;48.264;11.436;2023-07-20T06:36:08;96122.81;;;21.08;48.51
10476;BME280;26166;48.264;11.436;2023-07-20T06:39:08;96128.16;;;21.08;48.16
10476;BME280;26166;48.264;11.436;2023-07-20T06:42:09;96119.91;;;21.09;48.16
10476;BME280;26166;48.264;11.436;2023-07-20T06:45:09;96125.00;;;21.11;48.33
10476;BME280;26166;48.264;11.436;2023-07-20T06:48:09;96115.97;;;21.12;48.00
10476;BME280;26166;48.264;11.436;2023-07-20T06:51:09;96112.44;;;21.11;48.12
10476;BME280;26166;48.264;11.436;2023-07-20T06:54:10;96123.97;;;21.12;48.20
10476;BME280;26166;48.264;11.436;2023-07-20T06:57:10;96120.25;;;21.13;48.04
10476;BME280;26166;48.264;11.436;2023-07-20T07:00:10;96119.44;;;21.12;48.08
10476;BME280;26166;48.264;11.436;2023-07-20T07:03:11;96121.06;;;21.13;47.81
10476;BME280;26166;48.264;11.436;2023-07-20T07:06:11;96117.56;;;21.13;47.96
10476;BME280;26166;48.264;11.436;2023-07-20T07:09:11;96122.91;;;21.13;48.33
10476;BME280;26166;48.264;11.436;2023-07-20T07:12:12;96117.78;;;21.11;47.66
10476;BME280;26166;48.264;11.436;2023-07-20T07:15:12;96118.03;;;21.10;47.60
10476;BME280;26166;48.264;11.436;2023-07-20T07:18:12;96118.84;;;21.10;48.29
10476;BME280;26166;48.264;11.436;2023-07-20T07:21:12;96123.97;;;21.12;48.53
10476;BME280;26166;48.264;11.436;2023-07-20T07:24:12;96123.72;;;21.13;48.10
10476;BME280;26166;48.264;11.436;2023-07-20T07:27:13;96120.25;;;21.13;47.52
10476;BME280;26166;48.264;11.436;2023-07-20T07:30:16;96128.25;;;21.13;46.75
10476;BME280;26166;48.264;11.436;2023-07-20T07:33:16;96133.34;;;21.14;47.43
10476;BME280;26166;48.264;11.436;2023-07-20T07:36:16;96126.41;;;21.13;46.94
10476;BME280;26166;48.264;11.436;2023-07-20T07:39:16;96139.75;;;21.13;46.78
10476;BME280;26166;48.264;11.436;2023-07-20T07:42:17;96137.88;;;21.14;47.35
10476;BME280;26166;48.264;11.436;2023-07-20T07:45:18;96131.75;;;21.13;47.10
10476;BME280;26166;48.264;11.436;2023-07-20T07:48:18;96133.59;;;21.13;46.73
10476;BME280;26166;48.264;11.436;2023-07-20T07:51:20;96131.75;;;21.13;47.53
10476;BME280;26166;48.264;11.436;2023-07-20T07:54:20;96136.28;;;21.13;47.01
10476;BME280;26166;48.264;11.436;2023-07-20T07:57:20;96132.53;;;21.14;47.46
10476;BME280;26166;48.264;11.436;2023-07-20T08:00:21;96129.88;;;21.14;47.14
10476;BME280;26166;48.264;11.436;2023-07-20T08:03:21;96134.16;;;21.15;47.10
10476;BME280;26166;48.264;11.436;2023-07-20T08:06:23;96124.53;;;21.14;46.93
10476;BME280;26166;48.264;11.436;2023-07-20T08:09:26;96128.81;;;21.15;46.37
10476;BME280;26166;48.264;11.436;2023-07-20T08:12:27;96124.53;;;21.14;46.86
10476;BME280;26166;48.264;11.436;2023-07-20T08:15:27;96134.97;;;21.15;46.53
10476;BME280;26166;48.264;11.436;2023-07-20T08:18:27;96131.50;;;21.15;46.91
10476;BME280;26166;48.264;11.436;2023-07-20T08:21:27;96130.44;;;21.16;46.76
10476;BME280;26166;48.264;11.436;2023-07-20T08:24:28;96129.16;;;21.19;47.61
10476;BME280;26166;48.264;11.436;2023-07-20T08:27:28;96131.03;;;21.18;48.20
10476;BME280;26166;48.264;11.436;2023-07-20T08:30:38;96129.97;;;21.19;48.07
10476;BME280;26166;48.264;11.436;2023-07-20T08:33:39;96138.56;;;21.21;48.07
10476;BME280;26166;48.264;11.436;2023-07-20T08:36:39;96135.91;;;21.21;48.09
10476;BME280;26166;48.264;11.436;2023-07-20T08:39:39;96133.22;;;21.21;48.23
10476;BME280;26166;48.264;11.436;2023-07-20T08:42:40;96132.44;;;21.21;47.26
10476;BME280;26166;48.264;11.436;2023-07-20T08:45:41;96139.38;;;21.22;47.81
10476;BME280;26166;48.264;11.436;2023-07-20T08:48:41;96131.94;;;21.24;48.52
10476;BME280;26166;48.264;11.436;2023-07-20T08:51:42;96139.94;;;21.24;48.46
10476;BME280;26166;48.264;11.436;2023-07-20T08:54:43;96133.34;;;21.26;47.35
10476;BME280;26166;48.264;11.436;2023-07-20T08:57:43;96133.34;;;21.26;47.49
10476;BME280;26166;48.264;11.436;2023-07-20T09:00:45;96134.38;;;21.25;46.43
10476;BME280;26166;48.264;11.436;2023-07-20T09:03:46;96132.84;;;21.29;47.58
10476;BME280;26166;48.264;11.436;2023-07-20T09:06:46;96127.66;;;21.34;46.74
10476;BME280;26166;48.264;11.436;2023-07-20T09:09:47;96132.03;;;21.40;46.99
10476;BME280;26166;48.264;11.436;2023-07-20T09:12:48;96130.25;;;21.46;46.66
10476;BME280;26166;48.264;11.436;2023-07-20T09:15:52;96133.03;;;21.51;45.84
10476;BME280;26166;48.264;11.436;2023-07-20T09:18:53;96124.28;;;21.56;46.10
10476;BME280;26166;48.264;11.436;2023-07-20T09:21:53;96115.81;;;21.59;45.50
10476;BME280;26166;48.264;11.436;2023-07-20T09:24:53;96118.00;;;21.62;46.10
10476;BME280;26166;48.264;11.436;2023-07-20T09:27:54;96119.38;;;21.64;46.22
10476;BME280;26166;48.264;11.436;2023-07-20T09:30:54;96116.69;;;21.64;45.94
10476;BME280;26166;48.264;11.436;2023-07-20T09:33:56;96114.63;;;21.66;45.91
10476;BME280;26166;48.264;11.436;2023-07-20T09:36:57;96121.56;;;21.67;45.41
10476;BME280;26166;48.264;11.436;2023-07-20T09:39:58;96125.06;;;21.68;45.51
10476;BME280;26166;48.264;11.436;2023-07-20T09:42:58;96125.06;;;21.68;46.01
10476;BME280;26166;48.264;11.436;2023-07-20T09:46:03;96129.34;;;21.69;46.07
10476;BME280;26166;48.264;11.436;2023-07-20T09:49:07;96124.84;;;21.70;45.39
10476;BME280;26166;48.264;11.436;2023-07-20T09:52:08;96118.66;;;21.69;45.51
10476;BME280;26166;48.264;11.436;2023-07-20T09:55:09;96124.00;;;21.69;45.87
10476;BME280;26166;48.264;11.436;2023-07-20T09:58:11;96121.09;;;21.71;45.03
10476;BME280;26166;48.264;11.436;2023-07-20T10:01:11;96114.94;;;21.70;45.78
10476;BME280;26166;48.264;11.436;2023-07-20T10:04:14;96114.16;;;21.70;45.70
10476;BME280;26166;48.264;11.436;2023-07-20T10:07:16;96106.13;;;21.70;45.77
10476;BME280;26166;48.264;11.436;2023-07-20T10:10:17;96113.31;;;21.69;45.66
10476;BME280;26166;48.264;11.436;2023-07-20T10:13:18;96110.63;;;21.69;45.65
10476;BME280;26166;48.264;11.436;2023-07-20T10:16:32;96101.81;;;21.69;45.04
10476;BME280;26166;48.264;11.436;2023-07-20T10:19:38;96099.13;;;21.69;45.62
10476;BME280;26166;48.264;11.436;2023-07-20T10:22:42;96102.88;;;21.67;45.75
10476;BME280;26166;48.264;11.436;2023-07-20T10:25:43;96111.69;;;21.68;45.93
10476;BME280;26166;48.264;11.436;2023-07-20T10:28:45;96099.38;;;21.67;45.44
10476;BME280;26166;48.264;11.436;2023-07-20T10:31:45;96102.06;;;21.67;45.60
10476;BME280;26166;48.264;11.436;2023-07-20T10:34:52;96103.91;;;21.66;45.92
10476;BME280;26166;48.264;11.436;2023-07-20T10:38:04;96104.72;;;21.67;45.80
10476;BME280;26166;48.264;11.436;2023-07-20T10:41:04;96107.66;;;21.65;45.59
10476;BME280;26166;48.264;11.436;2023-07-20T10:44:15;96096.16;;;21.65;46.21
10476;BME280;26166;48.264;11.436;2023-07-20T10:47:19;96089.97;;;21.64;46.20
10476;BME280;26166;48.264;11.436;2023-07-20T10:50:19;96082.78;;;21.65;46.10
10476;BME280;26166;48.264;11.436;2023-07-20T10:53:21;96095.09;;;21.66;46.21
10476;BME280;26166;48.264;11.436;2023-07-20T10:56:22;96089.75;;;21.66;46.24
10476;BME280;26166;48.264;11.436;2023-07-20T11:02:23;96085.47;;;21.65;45.72
10476;BME280;26166;48.264;11.436;2023-07-20T11:05:39;96074.53;;;21.66;45.41
10476;BME280;26166;48.264;11.436;2023-07-20T11:08:41;96080.94;;;21.65;45.57
10476;BME280;26166;48.264;11.436;2023-07-20T11:11:42;96090.56;;;21.66;45.31
10476;BME280;26166;48.264;11.436;2023-07-20T11:14:58;96083.34;;;21.67;44.94
10476;BME280;26166;48.264;11.436;2023-07-20T11:18:10;96076.38;;;21.66;44.90
10476;BME280;26166;48.264;11.436;2023-07-20T11:21:11;96077.44;;;21.65;45.51
10476;BME280;26166;48.264;11.436;2023-07-20T11:24:11;96067.78;;;21.64;45.61
10476;BME280;26166;48.264;11.436;2023-07-20T11:27:15;96062.44;;;21.64;45.31
10476;BME280;26166;48.264;11.436;2023-07-20T11:30:16;96066.41;;;21.61;45.19
10476;BME280;26166;48.264;11.436;2023-07-20T11:33:16;96067.22;;;21.62;45.44
10476;BME280;26166;48.264;11.436;2023-07-20T11:36:16;96054.91;;;21.61;45.38
10476;BME280;26166;48.264;11.436;2023-07-20T11:39:17;96063.50;;;21.63;45.02
10476;BME280;26166;48.264;11.436;2023-07-20T11:42:21;96056.28;;;21.63;44.87
10476;BME280;26166;48.264;11.436;2023-07-20T11:45:21;96057.09;;;21.64;45.22
10476;BME280;26166;48.264;11.436;2023-07-20T11:48:22;96050.72;;;21.65;45.30
10476;BME280;26166;48.264;11.436;2023-07-20T11:51:22;96042.69;;;21.65;45.25
10476;BME280;26166;48.264;11.436;2023-07-20T11:54:22;96044.53;;;21.64;45.35
10476;BME280;26166;48.264;11.436;2023-07-20T11:57:23;96036.75;;;21.63;45.94
10476;BME280;26166;48.264;11.436;2023-07-20T12:00:24;96040.50;;;21.62;45.55
10476;BME280;26166;48.264;11.436;2023-07-20T12:03:24;96031.41;;;21.63;44.85
10476;BME280;26166;48.264;11.436;2023-07-20T12:06:25;96034.09;;;21.63;45.33
10476;BME280;26166;48.264;11.436;2023-07-20T12:09:25;96036.75;;;21.63;44.91
10476;BME280;26166;48.264;11.436;2023-07-20T12:12:26;96033.84;;;21.64;44.81
10476;BME280;26166;48.264;11.436;2023-07-20T12:15:26;96018.66;;;21.65;44.86
10476;BME280;26166;48.264;11.436;2023-07-20T12:18:34;96015.97;;;21.65;45.55
10476;BME280;26166;48.264;11.436;2023-07-20T12:21:35;96020.25;;;21.66;45.54
10476;BME280;26166;48.264;11.436;2023-07-20T12:24:36;96006.91;;;21.66;45.80
10476;BME280;26166;48.264;11.436;2023-07-20T12:27:37;96002.59;;;21.65;46.02
10476;BME280;26166;48.264;11.436;2023-07-20T12:30:42;96004.44;;;21.64;46.00
10476;BME280;26166;48.264;11.436;2023-07-20T12:33:42;95990.28;;;21.64;45.98
10476;BME280;26166;48.264;11.436;2023-07-20T12:36:42;95990.28;;;21.64;46.08
10476;BME280;26166;48.264;11.436;2023-07-20T12:39:43;95985.72;;;21.64;46.03
10476;BME280;26166;48.264;11.436;2023-07-20T12:42:46;95999.09;;;21.64;45.67
10476;BME280;26166;48.264;11.436;2023-07-20T12:45:47;95988.19;;;21.66;45.24
10476;BME280;26166;48.264;11.436;2023-07-20T12:48:47;95989.53;;;21.69;46.03
10476;BME280;26166;48.264;11.436;2023-07-20T12:51:47;95983.38;;;21.68;46.06
10476;BME280;26166;48.264;11.436;2023-07-20T12:54:47;95972.69;;;21.68;45.95
10476;BME280;26166;48.264;11.436;2023-07-20T12:57:47;95979.66;;;21.69;45.76
10476;BME280;26166;48.264;11.436;2023-07-20T13:00:48;95981.53;;;21.69;45.52
10476;BME280;26166;48.264;11.436;2023-07-20T13:03:48;95986.06;;;21.68;45.60
10476;BME280;26166;48.264;11.436;2023-07-20T13:06:48;95978.03;;;21.68;45.90
10476;BME280;26166;48.264;11.436;2023-07-20T13:09:48;95984.19;;;21.69;45.74
10476;BME280;26166;48.264;11.436;2023-07-20T13:12:48;95970.03;;;21.68;46.21
10476;BME280;26166;48.264;11.436;2023-07-20T13:15:49;95976.97;;;21.69;45.19
10476;BME280;26166;48.264;11.436;2023-07-20T13:18:50;95963.63;;;21.69;45.54
10476;BME280;26166;48.264;11.436;2023-07-20T13:21:50;95959.09;;;21.70;45.66
10476;BME280;26166;48.264;11.436;2023-07-20T13:24:50;95952.13;;;21.69;45.67
10476;BME280;26166;48.264;11.436;2023-07-20T13:27:50;95955.06;;;21.67;46.32
10476;BME280;26166;48.264;11.436;2023-07-20T13:30:50;95956.09;;;21.66;46.32
10476;BME280;26166;48.264;11.436;2023-07-20T13:33:51;95969.47;;;21.66;45.81
10476;BME280;26166;48.264;11.436;2023-07-20T13:36:53;95954.25;;;21.66;45.85
10476;BME280;26166;48.264;11.436;2023-07-20T13:39:53;95952.38;;;21.67;46.17
10476;BME280;26166;48.264;11.436;2023-07-20T13:42:54;95958.78;;;21.66;46.60
10476;BME280;26166;48.264;11.436;2023-07-20T13:45:54;95952.63;;;21.65;46.51
10476;BME280;26166;48.264;11.436;2023-07-20T13:48:54;95950.19;;;21.64;46.42
10476;BME280;26166;48.264;11.436;2023-07-20T13:51:55;95933.34;;;21.63;47.01
10476;BME280;26166;48.264;11.436;2023-07-20T13:54:56;95932.53;;;21.63;46.77
10476;BME280;26166;48.264;11.436;2023-07-20T13:57:56;95919.44;;;21.61;46.89
10476;BME280;26166;48.264;11.436;2023-07-20T14:00:58;95921.84;;;21.63;46.77
10476;BME280;26166;48.264;11.436;2023-07-20T14:03:59;95914.88;;;21.62;46.86
10476;BME280;26166;48.264;11.436;2023-07-20T14:06:59;95911.16;;;21.63;46.48
10476;BME280;26166;48.264;11.436;2023-07-20T14:09:59;95913.81;;;21.63;46.31
10476;BME280;26166;48.264;11.436;2023-07-20T14:13:00;95915.44;;;21.64;46.11
10476;BME280;26166;48.264;11.436;2023-07-20T14:16:00;95905.56;;;21.64;46.68
10476;BME280;26166;48.264;11.436;2023-07-20T14:19:00;95902.06;;;21.64;46.87
10476;BME280;26166;48.264;11.436;2023-07-20T14:22:00;95901.25;;;21.63;46.18
10476;BME280;26166;48.264;11.436;2023-07-20T14:25:00;95903.72;;;21.65;45.68
10476;BME280;26166;48.264;11.436;2023-07-20T14:28:01;95904.25;;;21.67;45.13
10476;BME280;26166;48.264;11.436;2023-07-20T14:31:01;95900.31;;;21.70;45.64
10476;BME280;26166;48.264;11.436;2023-07-20T14:34:01;95895.75;;;21.70;45.29
10476;BME280;26166;48.264;11.436;2023-07-20T14:37:01;95901.09;;;21.70;45.72
10476;BME280;26166;48.264;11.436;2023-07-20T14:40:02;95894.97;;;21.70;45.57
10476;BME280;26166;48.264;11.436;2023-07-20T14:43:05;95890.41;;;21.70;45.53
10476;BME280;26166;48.264;11.436;2023-07-20T14:46:05;95881.59;;;21.70;45.80
10476;BME280;26166;48.264;11.436;2023-07-20T14:49:05;95891.44;;;21.69;45.59
10476;BME280;26166;48.264;11.436;2023-07-20T14:52:05;95880.53;;;21.71;45.78
10476;BME280;26166;48.264;11.436;2023-07-20T14:55:06;95882.63;;;21.69;45.66
10476;BME280;26166;48.264;11.436;2023-07-20T14:58:06;95879.16;;;21.68;45.86
10476;BME280;26166;48.264;11.436;2023-07-20T15:01:06;95875.66;;;21.67;46.09
10476;BME280;26166;48.264;11.436;2023-07-20T15:04:06;95873.25;;;21.66;46.02
10476;BME280;26166;48.264;11.436;2023-07-20T15:07:07;95878.59;;;21.66;45.67
10476;BME280;26166;48.264;11.436;2023-07-20T15:10:07;95880.69;;;21.64;46.39
10476;BME280;26166;48.264;11.436;2023-07-20T15:13:08;95875.59;;;21.62;46.06
10476;BME280;26166;48.264;11.436;2023-07-20T15:16:08;95872.94;;;21.62;45.88
10476;BME280;26166;48.264;11.436;2023-07-20T15:19:10;95867.59;;;21.62;46.94
10476;BME280;26166;48.264;11.436;2023-07-20T15:22:13;95864.50;;;21.71;47.50
10476;BME280;26166;48.264;11.436;2023-07-20T15:25:13;95868.16;;;21.86;47.41
10476;BME280;26166;48.264;11.436;2023-07-20T15:28:14;95857.38;;;21.98;46.31
10476;BME280;26166;48.264;11.436;2023-07-20T15:31:14;95855.38;;;22.10;45.58
10476;BME280;26166;48.264;11.436;2023-07-20T15:34:14;95861.16;;;22.19;45.18
10476;BME280;26166;48.264;11.436;2023-07-20T15:37:15;95856.66;;;22.25;44.89
10476;BME280;26166;48.264;11.436;2023-07-20T15:40:15;95858.56;;;22.29;44.86
10476;BME280;26166;48.264;11.436;2023-07-20T15:43:16;95845.78;;;22.31;44.74
10476;BME280;26166;48.264;11.436;2023-07-20T15:49:19;95852.22;;;22.35;44.49
10476;BME280;26166;48.264;11.436;2023-07-20T15:52:20;95844.75;;;22.37;44.58
10476;BME280;26166;48.264;11.436;2023-07-20T15:55:20;95847.44;;;22.37;44.22
10476;BME280;26166;48.264;11.436;2023-07-20T15:58:20;95841.28;;;22.37;44.08
10476;BME280;26166;48.264;11.436;2023-07-20T16:01:20;95842.09;;;22.37;44.20
10476;BME280;26166;48.264;11.436;2023-07-20T16:04:21;95837.81;;;22.36;44.45